createdAt,value
2023-04-15T00:03:35.169Z,2.47
2023-04-15T00:06:05.586Z,3.17
2023-04-15T00:08:33.033Z,3.25
2023-04-15T00:11:03.278Z,2.83
2023-04-15T00:13:32.763Z,2.55
2023-04-15T00:15:59.895Z,3.20
2023-04-15T00:18:27.029Z,2.85
2023-04-15T00:20:54.441Z,2.63
2023-04-15T00:23:21.522Z,2.58
2023-04-15T00:25:49.030Z,1.73
2023-04-15T00:28:16.391Z,2.42
2023-04-15T00:30:44.295Z,2.13
2023-04-15T00:33:12.036Z,2.17
2023-04-15T00:35:40.052Z,2.72
2023-04-15T00:38:11.028Z,2.78
2023-04-15T00:40:38.377Z,2.00
2023-04-15T00:43:05.766Z,2.25
2023-04-15T00:45:33.940Z,2.67
2023-04-15T00:48:01.116Z,2.35
2023-04-15T00:50:29.110Z,2.13
2023-04-15T00:52:56.292Z,1.70
2023-04-15T00:55:27.381Z,1.58
2023-04-15T00:57:55.077Z,1.67
2023-04-15T01:00:25.115Z,1.33
2023-04-15T01:02:53.564Z,1.80
2023-04-15T01:05:20.986Z,1.50
2023-04-15T01:07:49.330Z,1.73
2023-04-15T01:10:17.173Z,1.33
2023-04-15T01:12:44.717Z,1.60
2023-04-15T01:15:12.292Z,1.35
2023-04-15T01:17:57.854Z,0.95
2023-04-15T01:20:26.259Z,1.30
2023-04-15T01:22:55.016Z,1.50
2023-04-15T01:25:35.124Z,1.40
2023-04-15T01:28:05.161Z,1.33
2023-04-15T01:30:35.949Z,1.38
2023-04-15T01:33:03.193Z,1.05
2023-04-15T01:35:34.188Z,1.15
2023-04-15T01:38:09.175Z,1.30
2023-04-15T01:40:38.691Z,1.27
2023-04-15T01:43:05.672Z,1.30
2023-04-15T01:45:32.624Z,1.25
2023-04-15T01:47:59.671Z,1.55
2023-04-15T01:50:27.209Z,1.10
2023-04-15T01:52:57.659Z,1.25
2023-04-15T01:55:25.712Z,1.35
2023-04-15T01:57:53.104Z,1.23
2023-04-15T02:00:22.716Z,1.38
2023-04-15T02:03:16.153Z,1.23
2023-04-15T02:05:43.827Z,1.20
2023-04-15T02:08:11.398Z,1.35
2023-04-15T02:10:39.092Z,0.80
2023-04-15T02:13:05.938Z,0.95
2023-04-15T02:15:33.697Z,1.10
2023-04-15T02:18:03.711Z,1.10
2023-04-15T02:20:32.463Z,1.30
2023-04-15T02:22:59.944Z,1.02
2023-04-15T02:25:26.963Z,1.42
2023-04-15T02:27:54.986Z,1.17
2023-04-15T02:30:23.977Z,1.17
2023-04-15T02:32:51.443Z,1.35
2023-04-15T02:35:21.198Z,1.27
2023-04-15T02:37:48.099Z,1.63
2023-04-15T02:40:15.221Z,1.38
2023-04-15T02:42:44.378Z,1.20
2023-04-15T02:45:16.064Z,1.20
2023-04-15T02:47:46.336Z,1.60
2023-04-15T02:50:13.695Z,1.63
2023-04-15T02:52:43.493Z,1.38
2023-04-15T02:55:11.234Z,1.85
2023-04-15T02:57:39.481Z,1.52
2023-04-15T03:00:10.683Z,1.60
2023-04-15T03:02:42.455Z,1.52
2023-04-15T03:05:15.851Z,1.67
2023-04-15T03:07:49.275Z,1.45
2023-04-15T03:10:16.854Z,1.67
2023-04-15T03:12:43.809Z,2.20
2023-04-15T03:15:16.608Z,1.80
2023-04-15T03:17:49.720Z,1.55
2023-04-15T03:20:17.316Z,1.95
2023-04-15T03:22:44.809Z,1.77
2023-04-15T03:25:12.235Z,2.10
2023-04-15T03:27:40.706Z,2.17
2023-04-15T03:30:11.570Z,2.13
2023-04-15T03:32:40.691Z,1.80
2023-04-15T03:35:09.964Z,2.17
2023-04-15T03:37:37.259Z,1.88
2023-04-15T03:40:11.686Z,2.22
2023-04-15T03:42:38.855Z,1.95
2023-04-15T03:45:06.606Z,2.25
2023-04-15T03:47:34.250Z,2.17
2023-04-15T03:50:02.268Z,2.05
2023-04-15T03:52:29.298Z,3.28
2023-04-15T03:54:56.455Z,4.00
2023-04-15T03:57:23.581Z,4.63
2023-04-15T03:59:51.469Z,3.33
2023-04-15T04:02:18.397Z,3.33
2023-04-15T04:04:46.558Z,3.63
2023-04-15T04:07:18.130Z,2.88
2023-04-15T04:09:47.050Z,2.83
2023-04-15T04:12:14.589Z,3.45
2023-04-15T04:14:41.905Z,2.40
2023-04-15T04:17:09.070Z,3.47
2023-04-15T04:19:37.672Z,3.08
2023-04-15T04:22:04.966Z,3.25
2023-04-15T04:24:32.490Z,2.80
2023-04-15T04:27:01.056Z,2.55
2023-04-15T04:29:27.916Z,2.83
2023-04-15T04:34:21.976Z,2.45
2023-04-15T04:36:49.602Z,2.47
2023-04-15T04:39:17.039Z,2.47
2023-04-15T04:41:46.842Z,2.70
2023-04-15T04:44:13.834Z,2.50
2023-04-15T04:46:41.479Z,3.08
2023-04-15T04:49:08.507Z,8.73
2023-04-15T04:51:36.278Z,18.65
2023-04-15T04:54:04.504Z,4.00
2023-04-15T04:56:32.164Z,6.35
2023-04-15T04:58:59.998Z,3.65
2023-04-15T05:01:29.749Z,2.50
2023-04-15T05:03:57.540Z,8.48
2023-04-15T05:06:24.456Z,11.18
2023-04-15T05:08:52.130Z,13.00
2023-04-15T05:11:20.059Z,29.35
2023-04-15T05:13:47.270Z,4.95
2023-04-15T05:16:15.302Z,3.47
2023-04-15T05:18:43.062Z,3.60
2023-04-15T05:21:11.962Z,3.08
2023-04-15T05:23:40.258Z,3.08
2023-04-15T05:26:07.494Z,3.20
2023-04-15T05:28:35.371Z,2.53
2023-04-15T05:31:03.109Z,2.80
2023-04-15T05:33:33.571Z,2.50
2023-04-15T05:36:01.576Z,2.80
2023-04-15T05:38:29.192Z,2.45
2023-04-15T05:40:57.145Z,2.72
2023-04-15T05:43:25.197Z,2.65
2023-04-15T05:45:52.835Z,2.67
2023-04-15T05:48:21.178Z,2.10
2023-04-15T05:50:50.086Z,2.20
2023-04-15T05:53:20.960Z,2.17
2023-04-15T05:55:48.208Z,2.55
2023-04-15T05:58:15.298Z,2.85
2023-04-15T06:00:42.934Z,2.58
2023-04-15T06:03:12.210Z,2.45
2023-04-15T06:05:40.958Z,2.05
2023-04-15T06:08:08.534Z,1.92
2023-04-15T06:10:36.957Z,2.13
2023-04-15T06:13:04.388Z,2.05
2023-04-15T06:15:39.641Z,2.20
2023-04-15T06:18:06.504Z,1.95
2023-04-15T06:20:33.988Z,2.13
2023-04-15T06:23:01.977Z,2.00
2023-04-15T06:25:29.997Z,1.70
2023-04-15T06:27:58.196Z,1.67
2023-04-15T06:30:26.354Z,1.80
2023-04-15T06:32:56.439Z,1.83
2023-04-15T06:35:23.521Z,1.63
2023-04-15T06:37:52.253Z,1.85
2023-04-15T06:40:21.811Z,1.50
2023-04-15T06:42:50.979Z,1.30
2023-04-15T06:45:19.816Z,1.38
2023-04-15T06:47:47.731Z,1.00
2023-04-15T06:50:18.031Z,0.80
2023-04-15T06:52:44.885Z,0.60
2023-04-15T06:55:13.959Z,0.60
2023-04-15T06:57:41.371Z,0.57
2023-04-15T07:00:11.753Z,0.70
2023-04-15T07:02:39.768Z,0.77
2023-04-15T07:05:07.706Z,0.88
2023-04-15T07:07:36.325Z,0.55
2023-04-15T07:32:03.658Z,0.70
2023-04-15T07:34:32.613Z,0.77
2023-04-15T07:37:01.643Z,0.70
2023-04-15T07:39:29.384Z,0.90
2023-04-15T07:41:56.497Z,0.63
2023-04-15T07:44:24.228Z,0.70
2023-04-15T07:46:51.407Z,0.70
2023-04-15T07:49:19.842Z,0.90
2023-04-15T07:51:50.218Z,1.00
2023-04-15T07:54:17.297Z,0.82
2023-04-15T07:56:44.488Z,0.80
2023-04-15T07:59:15.795Z,0.80
2023-04-15T08:01:42.941Z,0.65
2023-04-15T08:04:11.031Z,0.75
2023-04-15T08:06:40.253Z,0.90
2023-04-15T08:09:08.599Z,1.00
2023-04-15T08:11:36.993Z,0.93
2023-04-15T08:14:04.410Z,1.00
2023-04-15T08:16:32.530Z,0.77
2023-04-15T08:19:00.052Z,0.85
2023-04-15T08:21:31.136Z,1.05
2023-04-15T08:23:58.360Z,0.95
2023-04-15T08:26:26.425Z,1.02
2023-04-15T08:28:54.403Z,0.82
2023-04-15T08:31:22.949Z,1.15
2023-04-15T08:33:52.503Z,0.93
2023-04-15T08:36:20.318Z,1.05
2023-04-15T08:38:47.735Z,0.93
2023-04-15T08:41:29.594Z,1.05
2023-04-15T08:44:06.097Z,1.20
2023-04-15T08:46:37.389Z,1.15
2023-04-15T08:49:06.121Z,1.10
2023-04-15T08:51:34.185Z,1.45
2023-04-15T08:54:02.912Z,1.10
2023-04-15T08:56:33.012Z,1.08
2023-04-15T08:59:04.117Z,1.33
2023-04-15T09:01:32.931Z,1.17
2023-04-15T09:04:01.377Z,1.33
2023-04-15T09:06:28.826Z,1.25
2023-04-15T09:08:57.710Z,1.48
2023-04-15T09:11:25.422Z,1.10
2023-04-15T09:13:52.475Z,1.50
2023-04-15T09:16:21.683Z,1.60
2023-04-15T09:18:49.304Z,1.15
2023-04-15T09:21:19.560Z,1.50
2023-04-15T09:24:02.309Z,1.48
2023-04-15T09:26:39.031Z,1.38
2023-04-15T09:29:08.076Z,1.40
2023-04-15T09:31:37.019Z,1.30
2023-04-15T09:34:04.606Z,1.30
2023-04-15T09:36:47.743Z,1.38
2023-04-15T09:39:16.748Z,1.13
2023-04-15T09:41:44.789Z,1.40
2023-04-15T09:44:25.719Z,1.30
2023-04-15T09:46:54.307Z,1.60
2023-04-15T09:49:22.416Z,1.88
2023-04-15T09:52:01.652Z,1.98
2023-04-15T09:54:37.512Z,1.90
2023-04-15T09:57:12.747Z,1.98
2023-04-15T09:59:40.744Z,2.00
2023-04-15T10:02:08.386Z,2.15
2023-04-15T10:04:40.231Z,2.03
2023-04-15T10:07:15.167Z,2.30
2023-04-15T10:09:47.089Z,2.10
2023-04-15T10:12:17.703Z,2.15
2023-04-15T10:14:49.956Z,2.00
2023-04-15T10:17:19.292Z,1.67
2023-04-15T10:19:48.389Z,1.92
2023-04-15T10:22:16.267Z,1.70
2023-04-15T10:24:45.597Z,1.40
2023-04-15T10:27:14.102Z,2.00
2023-04-15T10:29:41.487Z,1.75
2023-04-15T10:32:09.390Z,1.67
2023-04-15T10:34:37.898Z,2.10
2023-04-15T10:37:05.477Z,2.00
2023-04-15T10:39:45.392Z,1.42
2023-04-15T10:42:15.619Z,1.45
2023-04-15T10:44:56.712Z,1.60
2023-04-15T10:47:24.260Z,1.83
2023-04-15T10:49:57.156Z,1.63
2023-04-15T10:52:27.574Z,2.30
2023-04-15T10:55:12.938Z,1.80
2023-04-15T10:57:41.667Z,1.95
2023-04-15T11:00:18.551Z,2.30
2023-04-15T11:03:06.331Z,2.10
2023-04-15T11:05:43.114Z,2.13
2023-04-15T11:08:14.203Z,2.13
2023-04-15T11:10:41.480Z,2.15
2023-04-15T11:13:11.949Z,2.20
2023-04-15T11:15:46.999Z,1.95
2023-04-15T11:18:18.762Z,2.35
2023-04-15T11:21:00.311Z,2.45
2023-04-15T11:23:41.640Z,2.13
2023-04-15T11:26:12.555Z,2.40
2023-04-15T11:28:42.345Z,2.17
2023-04-15T11:31:18.537Z,2.22
2023-04-15T11:33:56.709Z,2.03
2023-04-15T11:36:28.734Z,2.20
2023-04-15T11:38:57.947Z,2.25
2023-04-15T11:41:25.498Z,2.25
2023-04-15T11:43:53.227Z,2.10
2023-04-15T11:46:22.167Z,2.20
2023-04-15T11:48:49.342Z,2.40
2023-04-15T11:51:22.101Z,4.65
2023-04-15T11:53:51.157Z,2.15
2023-04-15T11:56:23.574Z,2.60
2023-04-15T11:59:01.202Z,2.15
2023-04-15T12:01:47.042Z,3.80
2023-04-15T12:04:18.681Z,2.53
2023-04-15T12:06:49.073Z,2.42
2023-04-15T12:09:17.424Z,2.28
2023-04-15T12:11:44.915Z,2.38
2023-04-15T12:14:28.595Z,2.72
2023-04-15T12:16:58.859Z,2.17
2023-04-15T12:19:48.700Z,2.00
2023-04-15T12:22:17.795Z,2.30
2023-04-15T12:24:48.327Z,1.85
2023-04-15T12:27:17.825Z,2.20
2023-04-15T12:29:45.249Z,2.03
2023-04-15T12:32:13.363Z,1.70
2023-04-15T12:34:58.328Z,1.77
2023-04-15T12:37:26.191Z,1.70
2023-04-15T12:39:54.078Z,1.83
2023-04-15T12:42:22.883Z,2.10
2023-04-15T12:44:50.333Z,1.85
2023-04-15T12:47:18.732Z,1.40
2023-04-15T12:49:45.888Z,1.42
2023-04-15T12:52:13.913Z,1.70
2023-04-15T12:54:41.282Z,1.70
2023-04-15T12:57:08.461Z,1.50
2023-04-15T12:59:37.240Z,2.00
2023-04-15T13:02:05.893Z,1.58
2023-04-15T13:04:33.870Z,2.03
2023-04-15T13:07:02.614Z,2.13
2023-04-15T13:09:29.500Z,2.00
2023-04-15T13:11:57.763Z,1.70
2023-04-15T13:14:25.676Z,2.13
2023-04-15T13:16:54.042Z,2.00
2023-04-15T13:19:21.476Z,2.10
2023-04-15T13:21:49.826Z,2.15
2023-04-15T13:24:18.192Z,1.83
2023-04-15T13:26:45.351Z,2.00
2023-04-15T13:29:14.731Z,2.10
2023-04-15T13:31:44.171Z,2.35
2023-04-15T13:34:11.601Z,2.03
2023-04-15T13:36:39.188Z,2.10
2023-04-15T13:39:06.656Z,1.60
2023-04-15T13:41:33.707Z,1.98
2023-04-15T13:44:01.409Z,1.85
2023-04-15T13:46:28.760Z,1.80
2023-04-15T13:48:56.197Z,2.00
2023-04-15T13:51:23.384Z,1.90
2023-04-15T13:53:50.876Z,1.67
2023-04-15T13:56:18.970Z,1.58
2023-04-15T13:58:46.453Z,2.03
2023-04-15T14:01:13.815Z,1.80
2023-04-15T14:03:42.315Z,1.52
2023-04-15T14:06:10.892Z,1.63
2023-04-15T14:08:39.100Z,1.60
2023-04-15T14:11:06.681Z,2.00
2023-04-15T14:13:34.734Z,1.60
2023-04-15T14:16:02.669Z,1.58
2023-04-15T14:18:31.235Z,1.60
2023-04-15T14:20:59.052Z,2.30
2023-04-15T14:23:26.849Z,1.60
2023-04-15T14:25:54.414Z,1.60
2023-04-15T14:28:22.544Z,1.30
2023-04-15T14:30:50.142Z,3.92
2023-04-15T14:33:18.079Z,2.60
2023-04-15T14:35:46.696Z,5.80
2023-04-15T14:38:14.021Z,2.20
2023-04-15T14:40:42.649Z,3.35
2023-04-15T14:43:09.675Z,1.95
2023-04-15T14:45:39.482Z,1.33
2023-04-15T14:48:10.246Z,1.60
2023-04-15T14:50:37.826Z,1.70
2023-04-15T14:53:05.770Z,2.28
2023-04-15T14:55:41.355Z,1.95
2023-04-15T14:58:09.606Z,1.80
2023-04-15T15:00:41.492Z,1.70
2023-04-15T15:03:13.228Z,1.88
2023-04-15T15:05:46.783Z,2.13
2023-04-15T15:08:14.302Z,2.00
2023-04-15T15:10:49.478Z,1.60
2023-04-15T15:13:18.092Z,1.75
2023-04-15T15:15:45.637Z,1.60
2023-04-15T15:18:13.449Z,1.52
2023-04-15T15:20:41.285Z,1.48
2023-04-15T15:23:08.892Z,1.75
2023-04-15T15:25:36.405Z,1.67
2023-04-15T15:28:03.876Z,1.67
2023-04-15T15:30:31.404Z,1.70
2023-04-15T15:32:58.466Z,2.00
2023-04-15T15:35:26.191Z,2.00
2023-04-15T15:37:55.259Z,2.20
2023-04-15T15:40:24.831Z,2.20
2023-04-15T15:42:53.087Z,2.08
2023-04-15T15:45:20.714Z,1.85
2023-04-15T15:47:48.150Z,1.67
2023-04-15T15:50:15.858Z,1.70
2023-04-15T15:52:43.735Z,1.85
2023-04-15T15:55:11.437Z,2.25
2023-04-15T15:57:38.618Z,1.65
2023-04-15T16:03:04.297Z,1.63
2023-04-15T16:05:25.544Z,1.50
2023-04-15T16:07:53.142Z,1.58
2023-04-15T16:10:20.694Z,1.33
2023-04-15T16:12:47.850Z,1.50
2023-04-15T16:15:15.998Z,1.45
2023-04-15T16:17:43.530Z,1.65
2023-04-15T16:20:11.236Z,1.60
2023-04-15T16:22:39.839Z,1.70
2023-04-15T16:25:07.705Z,1.55
2023-04-15T16:27:49.957Z,2.88
2023-04-15T16:30:23.898Z,1.65
2023-04-15T16:32:53.160Z,1.45
2023-04-15T16:35:22.222Z,1.42
2023-04-15T16:37:49.818Z,2.83
2023-04-15T16:40:17.273Z,1.70
2023-04-15T16:42:44.723Z,1.48
2023-04-15T16:45:12.846Z,1.33
2023-04-15T16:47:40.170Z,1.60
2023-04-15T16:50:08.071Z,2.00
2023-04-15T16:52:37.463Z,1.63
2023-04-15T16:55:06.186Z,1.40
2023-04-15T16:58:01.836Z,1.60
2023-04-15T17:00:24.566Z,1.73
2023-04-15T17:02:53.582Z,2.17
2023-04-15T17:05:21.517Z,1.98
2023-04-15T17:07:48.661Z,1.95
2023-04-15T17:10:15.768Z,2.63
2023-04-15T17:12:43.322Z,4.35
2023-04-15T17:15:10.693Z,4.30
2023-04-15T17:17:37.628Z,3.58
2023-04-15T17:20:05.490Z,2.78
2023-04-15T17:22:35.128Z,1.95
2023-04-15T17:25:03.294Z,2.22
2023-04-15T17:27:31.061Z,2.42
2023-04-15T17:29:58.204Z,4.25
2023-04-15T17:32:32.009Z,6.03
2023-04-15T17:35:00.026Z,5.97
2023-04-15T17:37:27.736Z,5.85
2023-04-15T17:39:55.089Z,5.90
2023-04-15T17:42:23.149Z,5.68
2023-04-15T17:44:50.783Z,3.80
2023-04-15T17:47:17.751Z,4.13
2023-04-15T17:49:45.522Z,4.68
2023-04-15T17:52:12.878Z,3.83
2023-04-15T17:54:40.497Z,2.85
2023-04-15T17:57:07.876Z,3.20
2023-04-15T17:59:35.472Z,3.15
2023-04-15T18:02:02.845Z,2.97
2023-04-15T18:04:29.971Z,3.35
2023-04-15T18:06:56.923Z,4.70
2023-04-15T18:09:24.108Z,6.88
2023-04-15T18:11:51.266Z,8.15
2023-04-15T18:14:33.045Z,8.55
2023-04-15T18:17:02.890Z,8.73
2023-04-15T18:19:30.710Z,7.95
2023-04-15T18:22:00.727Z,8.38
2023-04-15T18:24:28.893Z,8.05
2023-04-15T18:26:59.256Z,7.20
2023-04-15T18:29:26.507Z,7.47
2023-04-15T18:31:54.115Z,7.03
2023-04-15T18:34:21.600Z,6.82
2023-04-15T18:36:48.359Z,6.30
2023-04-15T18:39:16.753Z,5.85
2023-04-15T18:41:43.988Z,5.32
2023-04-15T18:44:10.942Z,4.32
2023-04-15T18:46:38.155Z,6.05
2023-04-15T18:49:06.544Z,5.53
2023-04-15T18:51:33.788Z,5.20
2023-04-15T18:54:01.103Z,5.28
2023-04-15T18:56:28.155Z,5.25
2023-04-15T18:59:08.920Z,5.72
2023-04-15T19:01:42.211Z,6.78
2023-04-15T19:04:10.277Z,5.70
2023-04-15T19:06:37.708Z,5.85
2023-04-15T19:09:05.793Z,5.28
2023-04-15T19:11:33.463Z,5.65
2023-04-15T19:14:01.707Z,4.78
2023-04-15T19:16:28.511Z,5.18
2023-04-15T19:18:55.611Z,5.10
2023-04-15T19:21:23.002Z,4.78
2023-04-15T19:23:50.299Z,5.10
2023-04-15T19:26:17.492Z,4.65
2023-04-15T19:28:44.548Z,4.90
2023-04-15T19:31:11.866Z,5.22
2023-04-15T19:33:38.969Z,4.70
2023-04-15T19:36:07.246Z,5.00
2023-04-15T19:38:37.908Z,5.03
2023-04-15T19:41:04.805Z,5.60
2023-04-15T19:43:33.362Z,6.05
2023-04-15T19:46:00.646Z,5.15
2023-04-15T19:48:28.069Z,5.80
2023-04-15T19:50:55.381Z,5.60
2023-04-15T19:53:22.877Z,5.40
2023-04-15T19:55:50.333Z,6.05
2023-04-15T19:58:17.125Z,5.22
2023-04-15T20:00:45.028Z,6.03
2023-04-15T20:03:12.866Z,6.60
2023-04-15T20:05:40.194Z,5.93
2023-04-15T20:08:07.019Z,6.13
2023-04-15T20:10:35.433Z,5.30
2023-04-15T20:13:02.426Z,6.68
2023-04-15T20:15:29.456Z,6.53
2023-04-15T20:17:56.731Z,7.32
2023-04-15T20:20:23.885Z,7.15
2023-04-15T20:22:52.811Z,7.28
2023-04-15T20:25:20.307Z,8.38
2023-04-15T20:27:47.376Z,8.18
2023-04-15T20:30:14.663Z,7.65
2023-04-15T20:32:42.341Z,8.88
2023-04-15T20:35:09.354Z,10.55
2023-04-15T20:37:37.511Z,11.30
2023-04-15T20:40:05.154Z,11.65
2023-04-15T20:42:35.272Z,13.27
2023-04-15T20:45:03.249Z,13.07
2023-04-15T20:47:30.521Z,11.60
2023-04-15T20:49:57.442Z,12.38
2023-04-15T20:52:24.201Z,11.73
2023-04-15T20:54:51.848Z,10.93
2023-04-15T20:57:20.260Z,10.38
2023-04-15T20:59:47.680Z,10.00
2023-04-15T21:02:15.356Z,10.43
2023-04-15T21:04:42.798Z,11.07
2023-04-15T21:07:10.132Z,10.55
2023-04-15T21:09:41.798Z,10.10
2023-04-15T21:12:10.468Z,9.70
2023-04-15T21:14:39.721Z,9.77
2023-04-15T21:17:10.846Z,10.63
2023-04-15T21:19:38.822Z,10.02
2023-04-15T21:22:05.968Z,10.25
2023-04-15T21:24:33.508Z,8.68
2023-04-15T21:27:02.285Z,9.45
2023-04-15T21:29:29.573Z,9.40
2023-04-15T21:31:57.087Z,8.82
2023-04-15T21:34:24.050Z,9.43
2023-04-15T21:36:52.847Z,8.40
2023-04-15T21:39:19.695Z,8.50
2023-04-15T21:41:46.829Z,8.90
2023-04-15T21:44:15.106Z,9.70
2023-04-15T21:46:46.365Z,9.57
2023-04-15T21:49:13.985Z,10.52
2023-04-15T21:51:40.989Z,9.85
2023-04-15T21:54:08.309Z,9.23
2023-04-15T21:56:35.537Z,8.75
2023-04-15T21:59:03.473Z,8.15
2023-04-15T22:01:30.994Z,7.97
2023-04-15T22:03:58.131Z,8.30
2023-04-15T22:06:25.348Z,7.13
2023-04-15T22:08:56.735Z,7.47
2023-04-15T22:11:30.484Z,8.18
2023-04-15T22:13:59.200Z,7.75
2023-04-15T22:16:26.776Z,8.55
2023-04-15T22:18:55.393Z,10.25
2023-04-15T22:21:22.963Z,11.15
2023-04-15T22:23:50.463Z,11.60
2023-04-15T22:26:17.379Z,11.57
2023-04-15T22:28:44.274Z,10.55
2023-04-15T22:31:11.640Z,9.52
2023-04-15T22:33:39.964Z,9.25
2023-04-15T22:36:06.961Z,8.63
2023-04-15T22:38:34.060Z,8.77
2023-04-15T22:41:01.401Z,9.65
2023-04-15T22:43:28.277Z,10.10
2023-04-15T22:45:57.542Z,10.38
2023-04-15T22:48:24.822Z,10.02
2023-04-15T22:50:52.322Z,9.30
2023-04-15T22:53:20.276Z,10.43
2023-04-15T22:55:48.459Z,10.27
2023-04-15T22:58:18.583Z,9.60
2023-04-15T23:00:46.086Z,9.95
2023-04-15T23:03:13.963Z,9.55
2023-04-15T23:05:42.158Z,9.00
2023-04-15T23:08:09.328Z,9.40
2023-04-15T23:10:36.963Z,9.18
2023-04-15T23:13:03.959Z,10.57
2023-04-15T23:15:30.995Z,10.23
2023-04-15T23:17:57.870Z,10.50
2023-04-15T23:20:24.732Z,10.52
2023-04-15T23:22:51.711Z,10.25
2023-04-15T23:25:22.387Z,9.52
2023-04-15T23:27:49.270Z,9.45
2023-04-15T23:30:16.097Z,9.98
2023-04-15T23:32:43.469Z,9.88
2023-04-15T23:35:10.869Z,11.27
2023-04-15T23:37:37.942Z,10.10
2023-04-15T23:40:05.459Z,9.95
2023-04-15T23:42:32.338Z,10.05
2023-04-15T23:44:59.858Z,9.18
2023-04-15T23:47:27.267Z,9.73
2023-04-15T23:49:54.472Z,9.90
2023-04-15T23:52:21.353Z,10.20
2023-04-15T23:54:49.014Z,10.45
2023-04-15T23:57:16.377Z,9.68
2023-04-15T23:59:43.297Z,11.15
